sensor_id;sensor_type;location;lat;lon;timestamp;pressure;altitude;pressure_sealevel;temperature;humidity
59367;BME280;45163;47.690;11.770;2023-04-25T00:00:00;92766.94;;;4.53;100.00
59367;BME280;45163;47.690;11.770;2023-04-25T00:02:26;92762.31;;;4.54;100.00
59367;BME280;45163;47.690;11.770;2023-04-25T00:04:53;92761.50;;;4.57;100.00
59367;BME280;45163;47.690;11.770;2023-04-25T00:07:22;92762.25;;;4.57;100.00
59367;BME280;45163;47.690;11.770;2023-04-25T00:09:48;92760.75;;;4.56;100.00
59367;BME280;45163;47.690;11.770;2023-04-25T00:12:14;92767.56;;;4.64;100.00
59367;BME280;45163;47.690;11.770;2023-04-25T00:14:41;92777.84;;;4.73;100.00
59367;BME280;45163;47.690;11.770;2023-04-25T00:17:10;92778.19;;;4.75;100.00
59367;BME280;45163;47.690;11.770;2023-04-25T00:19:36;92759.31;;;4.71;100.00
59367;BME280;45163;47.690;11.770;2023-04-25T00:22:03;92765.72;;;4.58;100.00
59367;BME280;45163;47.690;11.770;2023-04-25T00:24:31;92759.50;;;4.61;100.00
59367;BME280;45163;47.690;11.770;2023-04-25T00:26:57;92762.91;;;4.65;100.00
59367;BME280;45163;47.690;11.770;2023-04-25T00:29:23;92762.22;;;4.61;100.00
59367;BME280;45163;47.690;11.770;2023-04-25T00:31:49;92751.25;;;4.68;100.00
59367;BME280;45163;47.690;11.770;2023-04-25T00:34:15;92753.38;;;4.80;100.00
59367;BME280;45163;47.690;11.770;2023-04-25T00:36:40;92752.69;;;4.76;100.00
59367;BME280;45163;47.690;11.770;2023-04-25T00:39:06;92742.66;;;4.77;100.00
59367;BME280;45163;47.690;11.770;2023-04-25T00:41:33;92743.06;;;4.75;100.00
59367;BME280;45163;47.690;11.770;2023-04-25T00:43:59;92740.34;;;4.75;100.00
59367;BME280;45163;47.690;11.770;2023-04-25T00:46:26;92742.28;;;4.74;100.00
59367;BME280;45163;47.690;11.770;2023-04-25T00:48:52;92744.28;;;4.70;100.00
59367;BME280;45163;47.690;11.770;2023-04-25T00:51:20;92746.66;;;4.68;100.00
59367;BME280;45163;47.690;11.770;2023-04-25T00:53:47;92742.81;;;4.66;100.00
59367;BME280;45163;47.690;11.770;2023-04-25T00:56:14;92733.47;;;4.70;100.00
59367;BME280;45163;47.690;11.770;2023-04-25T00:58:41;92747.75;;;4.71;100.00
59367;BME280;45163;47.690;11.770;2023-04-25T01:01:08;92740.63;;;4.81;100.00
59367;BME280;45163;47.690;11.770;2023-04-25T01:03:37;92741.81;;;4.80;100.00
59367;BME280;45163;47.690;11.770;2023-04-25T01:06:10;92741.81;;;4.80;100.00
59367;BME280;45163;47.690;11.770;2023-04-25T01:08:38;92752.56;;;4.83;100.00
59367;BME280;45163;47.690;11.770;2023-04-25T01:11:05;92747.97;;;4.80;100.00
59367;BME280;45163;47.690;11.770;2023-04-25T01:13:31;92746.47;;;4.79;100.00
59367;BME280;45163;47.690;11.770;2023-04-25T01:15:59;92752.28;;;4.78;100.00
59367;BME280;45163;47.690;11.770;2023-04-25T01:18:25;92749.69;;;4.70;100.00
59367;BME280;45163;47.690;11.770;2023-04-25T01:20:52;92752.81;;;4.69;100.00
59367;BME280;45163;47.690;11.770;2023-04-25T01:23:21;92747.47;;;4.65;100.00
59367;BME280;45163;47.690;11.770;2023-04-25T01:25:49;92750.06;;;4.72;100.00
59367;BME280;45163;47.690;11.770;2023-04-25T01:28:15;92736.53;;;4.72;100.00
59367;BME280;45163;47.690;11.770;2023-04-25T01:30:42;92741.06;;;4.79;100.00
59367;BME280;45163;47.690;11.770;2023-04-25T01:33:09;92750.41;;;4.74;100.00
59367;BME280;45163;47.690;11.770;2023-04-25T01:35:35;92755.09;;;4.70;100.00
59367;BME280;45163;47.690;11.770;2023-04-25T01:38:01;92749.22;;;4.75;100.00
59367;BME280;45163;47.690;11.770;2023-04-25T01:40:27;92745.41;;;4.73;100.00
59367;BME280;45163;47.690;11.770;2023-04-25T01:42:53;92741.88;;;4.76;100.00
59367;BME280;45163;47.690;11.770;2023-04-25T01:45:19;92742.66;;;4.77;100.00
59367;BME280;45163;47.690;11.770;2023-04-25T01:47:46;92741.88;;;4.76;100.00
59367;BME280;45163;47.690;11.770;2023-04-25T01:50:17;92730.06;;;4.66;100.00
59367;BME280;45163;47.690;11.770;2023-04-25T01:52:44;92737.00;;;4.67;100.00
59367;BME280;45163;47.690;11.770;2023-04-25T01:55:11;92739.63;;;4.71;100.00
59367;BME280;45163;47.690;11.770;2023-04-25T01:57:37;92736.22;;;4.67;100.00
59367;BME280;45163;47.690;11.770;2023-04-25T02:00:05;92720.31;;;4.72;100.00
59367;BME280;45163;47.690;11.770;2023-04-25T02:02:32;92714.13;;;4.72;100.00
59367;BME280;45163;47.690;11.770;2023-04-25T02:04:58;92702.56;;;4.71;100.00
59367;BME280;45163;47.690;11.770;2023-04-25T02:07:26;92698.38;;;4.67;100.00
59367;BME280;45163;47.690;11.770;2023-04-25T02:09:52;92696.91;;;4.62;100.00
59367;BME280;45163;47.690;11.770;2023-04-25T02:12:18;92697.28;;;4.64;100.00
59367;BME280;45163;47.690;11.770;2023-04-25T02:14:44;92698.50;;;4.60;100.00
59367;BME280;45163;47.690;11.770;2023-04-25T02:17:10;92698.09;;;4.61;100.00
59367;BME280;45163;47.690;11.770;2023-04-25T02:19:36;92695.13;;;4.56;100.00
59367;BME280;45163;47.690;11.770;2023-04-25T02:22:02;92701.19;;;4.60;100.00
59367;BME280;45163;47.690;11.770;2023-04-25T02:24:28;92703.03;;;4.66;100.00
59367;BME280;45163;47.690;11.770;2023-04-25T02:26:54;92696.91;;;4.62;100.00
59367;BME280;45163;47.690;11.770;2023-04-25T02:29:21;92681.47;;;4.63;100.00
59367;BME280;45163;47.690;11.770;2023-04-25T02:31:47;92681.41;;;4.66;100.00
59367;BME280;45163;47.690;11.770;2023-04-25T02:34:16;92687.28;;;4.61;100.00
59367;BME280;45163;47.690;11.770;2023-04-25T02:36:42;92687.00;;;4.56;100.00
59367;BME280;45163;47.690;11.770;2023-04-25T02:39:08;92683.94;;;4.54;100.00
59367;BME280;45163;47.690;11.770;2023-04-25T02:41:34;92686.59;;;4.57;100.00
59367;BME280;45163;47.690;11.770;2023-04-25T02:44:00;92679.72;;;4.53;100.00
59367;BME280;45163;47.690;11.770;2023-04-25T02:46:26;92675.53;;;4.48;100.00
59367;BME280;45163;47.690;11.770;2023-04-25T02:48:52;92679.13;;;4.41;100.00
59367;BME280;45163;47.690;11.770;2023-04-25T02:51:18;92683.75;;;4.41;100.00
59367;BME280;45163;47.690;11.770;2023-04-25T02:53:44;92682.22;;;4.40;100.00
59367;BME280;45163;47.690;11.770;2023-04-25T02:56:10;92683.34;;;4.42;100.00
59367;BME280;45163;47.690;11.770;2023-04-25T02:58:36;92683.00;;;4.40;100.00
59367;BME280;45163;47.690;11.770;2023-04-25T03:01:02;92683.38;;;4.39;100.00
59367;BME280;45163;47.690;11.770;2023-04-25T03:03:28;92689.44;;;4.46;100.00
59367;BME280;45163;47.690;11.770;2023-04-25T03:05:54;92688.03;;;4.38;100.00
59367;BME280;45163;47.690;11.770;2023-04-25T03:08:20;92685.00;;;4.36;100.00
59367;BME280;45163;47.690;11.770;2023-04-25T03:10:46;92671.47;;;4.36;100.00
59367;BME280;45163;47.690;11.770;2023-04-25T03:13:12;92670.00;;;4.32;100.00
59367;BME280;45163;47.690;11.770;2023-04-25T03:15:38;92671.19;;;4.31;100.00
59367;BME280;45163;47.690;11.770;2023-04-25T03:18:04;92671.88;;;4.11;100.00
59367;BME280;45163;47.690;11.770;2023-04-25T03:20:30;92672.97;;;4.14;100.00
59367;BME280;45163;47.690;11.770;2023-04-25T03:22:56;92666.03;;;4.13;100.00
59367;BME280;45163;47.690;11.770;2023-04-25T03:25:22;92666.09;;;4.09;100.00
59367;BME280;45163;47.690;11.770;2023-04-25T03:27:48;92661.53;;;4.06;100.00
59367;BME280;45163;47.690;11.770;2023-04-25T03:30:14;92653.09;;;4.00;100.00
59367;BME280;45163;47.690;11.770;2023-04-25T03:32:40;92665.09;;;3.99;100.00
59367;BME280;45163;47.690;11.770;2023-04-25T03:35:06;92654.38;;;3.92;100.00
59367;BME280;45163;47.690;11.770;2023-04-25T03:37:32;92664.88;;;3.87;100.00
59367;BME280;45163;47.690;11.770;2023-04-25T03:39:58;92666.13;;;3.82;100.00
59367;BME280;45163;47.690;11.770;2023-04-25T03:42:24;92668.41;;;3.84;100.00
59367;BME280;45163;47.690;11.770;2023-04-25T03:44:51;92669.56;;;3.83;100.00
59367;BME280;45163;47.690;11.770;2023-04-25T03:47:17;92667.00;;;3.72;100.00
59367;BME280;45163;47.690;11.770;2023-04-25T03:49:43;92668.59;;;3.69;100.00
59367;BME280;45163;47.690;11.770;2023-04-25T03:52:10;92674.13;;;3.59;100.00
59367;BME280;45163;47.690;11.770;2023-04-25T03:54:36;92667.63;;;3.56;100.00
59367;BME280;45163;47.690;11.770;2023-04-25T03:57:02;92666.16;;;3.52;100.00
59367;BME280;45163;47.690;11.770;2023-04-25T03:59:28;92669.16;;;3.57;100.00
59367;BME280;45163;47.690;11.770;2023-04-25T04:01:54;92671.09;;;3.57;100.00
59367;BME280;45163;47.690;11.770;2023-04-25T04:04:20;92675.38;;;3.50;100.00
59367;BME280;45163;47.690;11.770;2023-04-25T04:06:46;92672.38;;;3.45;100.00
59367;BME280;45163;47.690;11.770;2023-04-25T04:09:12;92683.56;;;3.47;100.00
59367;BME280;45163;47.690;11.770;2023-04-25T04:11:38;92672.03;;;3.43;100.00
59367;BME280;45163;47.690;11.770;2023-04-25T04:14:06;92669.56;;;3.56;100.00
59367;BME280;45163;47.690;11.770;2023-04-25T04:16:32;92669.78;;;3.68;100.00
59367;BME280;45163;47.690;11.770;2023-04-25T04:18:58;92671.66;;;3.71;100.00
59367;BME280;45163;47.690;11.770;2023-04-25T04:21:24;92676.94;;;3.79;100.00
59367;BME280;45163;47.690;11.770;2023-04-25T04:23:50;92666.16;;;3.79;100.00
59367;BME280;45163;47.690;11.770;2023-04-25T04:26:16;92671.50;;;3.82;100.00
59367;BME280;45163;47.690;11.770;2023-04-25T04:28:43;92666.56;;;3.77;100.00
59367;BME280;45163;47.690;11.770;2023-04-25T04:31:10;92662.31;;;3.76;100.00
59367;BME280;45163;47.690;11.770;2023-04-25T04:33:36;92667.00;;;3.72;100.00
59367;BME280;45163;47.690;11.770;2023-04-25T04:36:03;92660.91;;;3.68;100.00
59367;BME280;45163;47.690;11.770;2023-04-25T04:38:30;92664.06;;;3.63;100.00
59367;BME280;45163;47.690;11.770;2023-04-25T04:40:56;92661.06;;;3.57;100.00
59367;BME280;45163;47.690;11.770;2023-04-25T04:43:22;92656.13;;;3.52;100.00
59367;BME280;45163;47.690;11.770;2023-04-25T04:45:48;92652.69;;;3.48;100.00
59367;BME280;45163;47.690;11.770;2023-04-25T04:48:16;92658.19;;;3.41;100.00
59367;BME280;45163;47.690;11.770;2023-04-25T04:50:45;92657.03;;;3.38;100.00
59367;BME280;45163;47.690;11.770;2023-04-25T04:53:11;92666.69;;;3.39;100.00
59367;BME280;45163;47.690;11.770;2023-04-25T04:55:37;92664.03;;;3.36;100.00
59367;BME280;45163;47.690;11.770;2023-04-25T04:58:03;92658.56;;;3.43;100.00
59367;BME280;45163;47.690;11.770;2023-04-25T05:00:29;92666.03;;;3.59;100.00
59367;BME280;45163;47.690;11.770;2023-04-25T05:02:56;92665.03;;;3.76;100.00
59367;BME280;45163;47.690;11.770;2023-04-25T05:05:22;92677.97;;;3.88;100.00
59367;BME280;45163;47.690;11.770;2023-04-25T05:07:48;92675.88;;;3.99;100.00
59367;BME280;45163;47.690;11.770;2023-04-25T05:10:14;92665.34;;;4.09;100.00
59367;BME280;45163;47.690;11.770;2023-04-25T05:12:40;92673.28;;;4.19;100.00
59367;BME280;45163;47.690;11.770;2023-04-25T05:15:06;92664.03;;;4.44;100.00
59367;BME280;45163;47.690;11.770;2023-04-25T05:17:32;92659.34;;;4.48;100.00
59367;BME280;45163;47.690;11.770;2023-04-25T05:19:58;92654.47;;;4.39;100.00
59367;BME280;45163;47.690;11.770;2023-04-25T05:22:24;92657.63;;;4.58;100.00
59367;BME280;45163;47.690;11.770;2023-04-25T05:24:50;92657.09;;;4.66;100.00
59367;BME280;45163;47.690;11.770;2023-04-25T05:27:18;92653.06;;;4.74;100.00
59367;BME280;45163;47.690;11.770;2023-04-25T05:29:44;92646.44;;;4.79;100.00
59367;BME280;45163;47.690;11.770;2023-04-25T05:32:10;92649.63;;;4.74;100.00
59367;BME280;45163;47.690;11.770;2023-04-25T05:34:36;92648.78;;;4.77;100.00
59367;BME280;45163;47.690;11.770;2023-04-25T05:37:02;92655.25;;;4.83;100.00
59367;BME280;45163;47.690;11.770;2023-04-25T05:39:28;92653.22;;;4.87;100.00
59367;BME280;45163;47.690;11.770;2023-04-25T05:41:55;92651.81;;;5.03;100.00
59367;BME280;45163;47.690;11.770;2023-04-25T05:44:21;92660.75;;;5.19;100.00
59367;BME280;45163;47.690;11.770;2023-04-25T05:46:47;92665.13;;;5.33;100.00
59367;BME280;45163;47.690;11.770;2023-04-25T05:49:13;92671.09;;;5.44;100.00
59367;BME280;45163;47.690;11.770;2023-04-25T05:51:39;92666.06;;;5.83;100.00
59367;BME280;45163;47.690;11.770;2023-04-25T05:54:05;92669.16;;;6.01;100.00
59367;BME280;45163;47.690;11.770;2023-04-25T05:56:31;92664.84;;;6.04;100.00
59367;BME280;45163;47.690;11.770;2023-04-25T05:58:57;92663.34;;;5.83;100.00
59367;BME280;45163;47.690;11.770;2023-04-25T06:01:23;92642.44;;;5.83;100.00
59367;BME280;45163;47.690;11.770;2023-04-25T06:03:49;92639.53;;;5.94;100.00
59367;BME280;45163;47.690;11.770;2023-04-25T06:06:17;92636.25;;;6.03;100.00
59367;BME280;45163;47.690;11.770;2023-04-25T06:08:43;92639.97;;;6.09;100.00
59367;BME280;45163;47.690;11.770;2023-04-25T06:11:09;92638.28;;;6.31;100.00
59367;BME280;45163;47.690;11.770;2023-04-25T06:13:35;92638.47;;;6.57;100.00
59367;BME280;45163;47.690;11.770;2023-04-25T06:16:00;92639.31;;;6.99;100.00
59367;BME280;45163;47.690;11.770;2023-04-25T06:18:26;92641.88;;;7.19;100.00
59367;BME280;45163;47.690;11.770;2023-04-25T06:20:52;92636.06;;;7.33;100.00
59367;BME280;45163;47.690;11.770;2023-04-25T06:23:18;92643.66;;;7.80;100.00
59367;BME280;45163;47.690;11.770;2023-04-25T06:25:44;92633.56;;;8.19;100.00
59367;BME280;45163;47.690;11.770;2023-04-25T06:28:10;92622.94;;;7.99;100.00
59367;BME280;45163;47.690;11.770;2023-04-25T06:30:36;92611.03;;;7.67;100.00
59367;BME280;45163;47.690;11.770;2023-04-25T06:33:02;92602.59;;;7.23;100.00
59367;BME280;45163;47.690;11.770;2023-04-25T06:35:28;92604.50;;;6.81;100.00
59367;BME280;45163;47.690;11.770;2023-04-25T06:37:54;92611.56;;;6.79;100.00
59367;BME280;45163;47.690;11.770;2023-04-25T06:40:20;92606.50;;;6.93;100.00
59367;BME280;45163;47.690;11.770;2023-04-25T06:42:46;92610.28;;;6.83;100.00
59367;BME280;45163;47.690;11.770;2023-04-25T06:45:12;92606.53;;;6.77;100.00
59367;BME280;45163;47.690;11.770;2023-04-25T06:47:38;92609.25;;;6.77;100.00
59367;BME280;45163;47.690;11.770;2023-04-25T06:50:05;92606.44;;;6.81;100.00
59367;BME280;45163;47.690;11.770;2023-04-25T06:52:31;92616.97;;;6.79;100.00
59367;BME280;45163;47.690;11.770;2023-04-25T06:54:57;92615.91;;;6.60;100.00
59367;BME280;45163;47.690;11.770;2023-04-25T06:57:24;92618.34;;;6.70;100.00
59367;BME280;45163;47.690;11.770;2023-04-25T06:59:50;92606.28;;;6.88;100.00
59367;BME280;45163;47.690;11.770;2023-04-25T07:02:16;92603.31;;;6.82;100.00
59367;BME280;45163;47.690;11.770;2023-04-25T07:04:42;92603.16;;;7.31;100.00
59367;BME280;45163;47.690;11.770;2023-04-25T07:07:07;92593.88;;;7.58;100.00
59367;BME280;45163;47.690;11.770;2023-04-25T07:09:33;92581.03;;;8.22;100.00
59367;BME280;45163;47.690;11.770;2023-04-25T07:12:00;92580.31;;;8.69;100.00
59367;BME280;45163;47.690;11.770;2023-04-25T07:14:29;92574.06;;;9.16;100.00
59367;BME280;45163;47.690;11.770;2023-04-25T07:16:55;92562.44;;;9.46;100.00
59367;BME280;45163;47.690;11.770;2023-04-25T07:19:22;92563.88;;;9.91;100.00
59367;BME280;45163;47.690;11.770;2023-04-25T07:21:52;92552.16;;;11.08;100.00
59367;BME280;45163;47.690;11.770;2023-04-25T07:24:18;92554.16;;;12.53;100.00
59367;BME280;45163;47.690;11.770;2023-04-25T07:26:44;92547.78;;;12.95;100.00
59367;BME280;45163;47.690;11.770;2023-04-25T07:29:11;92556.94;;;12.44;100.00
59367;BME280;45163;47.690;11.770;2023-04-25T07:31:37;92551.16;;;13.14;100.00
59367;BME280;45163;47.690;11.770;2023-04-25T07:34:03;92542.44;;;13.99;100.00
59367;BME280;45163;47.690;11.770;2023-04-25T07:36:29;92553.88;;;13.97;100.00
59367;BME280;45163;47.690;11.770;2023-04-25T07:38:56;92549.16;;;13.98;100.00
59367;BME280;45163;47.690;11.770;2023-04-25T07:41:22;92546.16;;;14.31;100.00
59367;BME280;45163;47.690;11.770;2023-04-25T07:43:48;92538.38;;;13.94;97.46
59367;BME280;45163;47.690;11.770;2023-04-25T07:46:14;92549.66;;;13.13;100.00
59367;BME280;45163;47.690;11.770;2023-04-25T07:48:40;92547.91;;;13.01;100.00
59367;BME280;45163;47.690;11.770;2023-04-25T07:51:06;92548.56;;;12.14;100.00
59367;BME280;45163;47.690;11.770;2023-04-25T07:53:33;92547.91;;;13.01;100.00
59367;BME280;45163;47.690;11.770;2023-04-25T07:56:00;92545.28;;;13.60;100.00
59367;BME280;45163;47.690;11.770;2023-04-25T07:58:26;92541.81;;;14.94;92.29
